sensor_id;sensor_type;location;lat;lon;timestamp;temperature;humidity
9845;DHT22;4961;50.782;6.080;2022-09-12T00:01:35;16.40;99.90
9845;DHT22;4961;50.782;6.080;2022-09-12T00:04:03;16.30;99.90
9845;DHT22;4961;50.782;6.080;2022-09-12T00:06:35;16.40;99.90
9845;DHT22;4961;50.782;6.080;2022-09-12T00:09:06;16.40;99.90
9845;DHT22;4961;50.782;6.080;2022-09-12T00:11:37;16.40;99.90
9845;DHT22;4961;50.782;6.080;2022-09-12T00:14:07;16.30;99.90
9845;DHT22;4961;50.782;6.080;2022-09-12T00:16:36;16.30;99.90
9845;DHT22;4961;50.782;6.080;2022-09-12T00:19:06;16.30;99.90
9845;DHT22;4961;50.782;6.080;2022-09-12T00:21:36;16.30;99.90
9845;DHT22;4961;50.782;6.080;2022-09-12T00:24:05;16.30;99.90
9845;DHT22;4961;50.782;6.080;2022-09-12T00:26:33;16.30;99.90
9845;DHT22;4961;50.782;6.080;2022-09-12T00:29:03;16.20;99.90
9845;DHT22;4961;50.782;6.080;2022-09-12T00:31:32;16.20;99.90
9845;DHT22;4961;50.782;6.080;2022-09-12T00:34:01;16.20;99.90
9845;DHT22;4961;50.782;6.080;2022-09-12T00:36:30;16.30;99.90
9845;DHT22;4961;50.782;6.080;2022-09-12T00:38:59;16.30;99.90
9845;DHT22;4961;50.782;6.080;2022-09-12T00:41:29;16.30;99.90
9845;DHT22;4961;50.782;6.080;2022-09-12T00:44:00;16.30;99.90
9845;DHT22;4961;50.782;6.080;2022-09-12T00:46:35;16.30;99.90
9845;DHT22;4961;50.782;6.080;2022-09-12T00:49:10;16.30;99.90
9845;DHT22;4961;50.782;6.080;2022-09-12T00:51:42;16.40;99.90
9845;DHT22;4961;50.782;6.080;2022-09-12T00:54:14;16.40;99.90
9845;DHT22;4961;50.782;6.080;2022-09-12T00:56:45;16.40;99.90
9845;DHT22;4961;50.782;6.080;2022-09-12T00:59:18;16.50;99.90
9845;DHT22;4961;50.782;6.080;2022-09-12T01:01:51;16.50;99.90
9845;DHT22;4961;50.782;6.080;2022-09-12T01:04:21;16.50;99.90
9845;DHT22;4961;50.782;6.080;2022-09-12T01:06:51;16.50;99.90
9845;DHT22;4961;50.782;6.080;2022-09-12T01:09:21;16.50;99.90
9845;DHT22;4961;50.782;6.080;2022-09-12T01:11:51;16.50;99.90
9845;DHT22;4961;50.782;6.080;2022-09-12T01:14:20;16.50;99.90
9845;DHT22;4961;50.782;6.080;2022-09-12T01:16:50;16.50;99.90
9845;DHT22;4961;50.782;6.080;2022-09-12T01:19:38;16.50;99.90
9845;DHT22;4961;50.782;6.080;2022-09-12T01:22:25;16.50;99.90
9845;DHT22;4961;50.782;6.080;2022-09-12T01:25:03;16.50;99.90
9845;DHT22;4961;50.782;6.080;2022-09-12T01:27:47;16.50;99.90
9845;DHT22;4961;50.782;6.080;2022-09-12T01:33:38;16.50;99.90
9845;DHT22;4961;50.782;6.080;2022-09-12T01:36:28;16.50;99.90
9845;DHT22;4961;50.782;6.080;2022-09-12T01:39:04;16.50;99.90
9845;DHT22;4961;50.782;6.080;2022-09-12T01:41:42;16.50;99.90
9845;DHT22;4961;50.782;6.080;2022-09-12T01:44:22;16.60;99.90
9845;DHT22;4961;50.782;6.080;2022-09-12T01:46:58;16.60;99.90
9845;DHT22;4961;50.782;6.080;2022-09-12T01:49:37;16.60;99.90
9845;DHT22;4961;50.782;6.080;2022-09-12T01:52:13;16.60;99.90
9845;DHT22;4961;50.782;6.080;2022-09-12T01:54:48;16.60;99.90
9845;DHT22;4961;50.782;6.080;2022-09-12T01:57:21;16.50;99.90
9845;DHT22;4961;50.782;6.080;2022-09-12T01:59:55;16.50;99.90
9845;DHT22;4961;50.782;6.080;2022-09-12T02:02:31;16.50;99.90
9845;DHT22;4961;50.782;6.080;2022-09-12T02:05:04;16.50;99.90
9845;DHT22;4961;50.782;6.080;2022-09-12T02:07:37;16.50;99.90
9845;DHT22;4961;50.782;6.080;2022-09-12T02:10:09;16.50;99.90
9845;DHT22;4961;50.782;6.080;2022-09-12T02:12:43;16.50;99.90
9845;DHT22;4961;50.782;6.080;2022-09-12T02:15:13;16.40;99.90
9845;DHT22;4961;50.782;6.080;2022-09-12T02:17:47;16.40;99.90
9845;DHT22;4961;50.782;6.080;2022-09-12T02:20:19;16.40;99.90
9845;DHT22;4961;50.782;6.080;2022-09-12T02:23:12;16.40;99.90
9845;DHT22;4961;50.782;6.080;2022-09-12T02:25:45;16.40;99.90
9845;DHT22;4961;50.782;6.080;2022-09-12T02:28:17;16.40;99.90
9845;DHT22;4961;50.782;6.080;2022-09-12T02:30:58;16.40;99.90
9845;DHT22;4961;50.782;6.080;2022-09-12T02:33:31;16.40;99.90
9845;DHT22;4961;50.782;6.080;2022-09-12T02:36:07;16.40;99.90
9845;DHT22;4961;50.782;6.080;2022-09-12T02:38:43;16.40;99.90
9845;DHT22;4961;50.782;6.080;2022-09-12T02:41:14;16.40;99.90
9845;DHT22;4961;50.782;6.080;2022-09-12T02:43:44;16.50;99.90
9845;DHT22;4961;50.782;6.080;2022-09-12T02:46:17;16.50;99.90
9845;DHT22;4961;50.782;6.080;2022-09-12T02:48:49;16.50;99.90
9845;DHT22;4961;50.782;6.080;2022-09-12T02:51:17;16.50;99.90
9845;DHT22;4961;50.782;6.080;2022-09-12T02:53:49;16.50;99.90
9845;DHT22;4961;50.782;6.080;2022-09-12T02:56:22;16.50;99.90
9845;DHT22;4961;50.782;6.080;2022-09-12T02:58:53;16.50;99.90
9845;DHT22;4961;50.782;6.080;2022-09-12T03:01:32;16.50;99.90
9845;DHT22;4961;50.782;6.080;2022-09-12T03:04:32;16.40;99.90
9845;DHT22;4961;50.782;6.080;2022-09-12T03:07:11;16.40;99.90
9845;DHT22;4961;50.782;6.080;2022-09-12T03:09:46;16.40;99.90
9845;DHT22;4961;50.782;6.080;2022-09-12T03:12:29;16.30;99.90
9845;DHT22;4961;50.782;6.080;2022-09-12T03:15:25;16.30;99.90
9845;DHT22;4961;50.782;6.080;2022-09-12T03:18:07;16.30;99.90
9845;DHT22;4961;50.782;6.080;2022-09-12T03:20:46;16.30;99.90
9845;DHT22;4961;50.782;6.080;2022-09-12T03:23:24;16.30;99.90
9845;DHT22;4961;50.782;6.080;2022-09-12T03:25:58;16.30;99.90
9845;DHT22;4961;50.782;6.080;2022-09-12T03:28:27;16.30;99.90
9845;DHT22;4961;50.782;6.080;2022-09-12T03:30:55;16.20;99.90
9845;DHT22;4961;50.782;6.080;2022-09-12T03:33:25;16.20;99.90
9845;DHT22;4961;50.782;6.080;2022-09-12T03:35:55;16.20;99.90
9845;DHT22;4961;50.782;6.080;2022-09-12T03:38:24;16.20;99.90
9845;DHT22;4961;50.782;6.080;2022-09-12T03:40:52;16.20;99.90
9845;DHT22;4961;50.782;6.080;2022-09-12T03:43:21;16.20;99.90
9845;DHT22;4961;50.782;6.080;2022-09-12T03:45:50;16.20;99.90
9845;DHT22;4961;50.782;6.080;2022-09-12T03:48:19;16.10;99.90
9845;DHT22;4961;50.782;6.080;2022-09-12T03:50:48;16.10;99.90
9845;DHT22;4961;50.782;6.080;2022-09-12T03:53:18;16.10;99.90
9845;DHT22;4961;50.782;6.080;2022-09-12T03:55:46;16.10;99.90
9845;DHT22;4961;50.782;6.080;2022-09-12T03:58:14;16.10;99.90
9845;DHT22;4961;50.782;6.080;2022-09-12T04:00:42;16.10;99.90
9845;DHT22;4961;50.782;6.080;2022-09-12T04:03:11;16.10;99.90
9845;DHT22;4961;50.782;6.080;2022-09-12T04:05:39;16.10;99.90
9845;DHT22;4961;50.782;6.080;2022-09-12T04:08:07;16.10;99.90
9845;DHT22;4961;50.782;6.080;2022-09-12T04:10:36;16.10;99.90
9845;DHT22;4961;50.782;6.080;2022-09-12T04:13:05;16.10;99.90
9845;DHT22;4961;50.782;6.080;2022-09-12T04:15:33;16.10;99.90
9845;DHT22;4961;50.782;6.080;2022-09-12T04:18:01;16.20;99.90
9845;DHT22;4961;50.782;6.080;2022-09-12T04:20:32;16.20;99.90
9845;DHT22;4961;50.782;6.080;2022-09-12T04:23:00;16.10;99.90
9845;DHT22;4961;50.782;6.080;2022-09-12T04:25:28;16.10;99.90
9845;DHT22;4961;50.782;6.080;2022-09-12T04:27:58;16.10;99.90
9845;DHT22;4961;50.782;6.080;2022-09-12T04:30:28;16.00;99.90
9845;DHT22;4961;50.782;6.080;2022-09-12T04:32:56;16.00;99.90
9845;DHT22;4961;50.782;6.080;2022-09-12T04:35:24;16.10;99.90
9845;DHT22;4961;50.782;6.080;2022-09-12T04:37:52;16.00;99.90
9845;DHT22;4961;50.782;6.080;2022-09-12T04:40:21;16.00;99.90
9845;DHT22;4961;50.782;6.080;2022-09-12T04:42:49;16.00;99.90
9845;DHT22;4961;50.782;6.080;2022-09-12T04:45:18;16.00;99.90
9845;DHT22;4961;50.782;6.080;2022-09-12T04:47:47;16.00;99.90
9845;DHT22;4961;50.782;6.080;2022-09-12T04:50:15;16.00;99.90
9845;DHT22;4961;50.782;6.080;2022-09-12T04:52:48;16.00;99.90
9845;DHT22;4961;50.782;6.080;2022-09-12T04:55:17;16.00;99.90
9845;DHT22;4961;50.782;6.080;2022-09-12T04:57:46;16.00;99.90
9845;DHT22;4961;50.782;6.080;2022-09-12T05:00:15;15.90;99.90
9845;DHT22;4961;50.782;6.080;2022-09-12T05:02:44;15.90;99.90
9845;DHT22;4961;50.782;6.080;2022-09-12T05:05:13;15.90;99.90
9845;DHT22;4961;50.782;6.080;2022-09-12T05:07:41;15.90;99.90
9845;DHT22;4961;50.782;6.080;2022-09-12T05:10:09;15.80;99.90
9845;DHT22;4961;50.782;6.080;2022-09-12T05:12:38;15.80;99.90
9845;DHT22;4961;50.782;6.080;2022-09-12T05:15:08;15.80;99.90
9845;DHT22;4961;50.782;6.080;2022-09-12T05:17:37;15.80;99.90
9845;DHT22;4961;50.782;6.080;2022-09-12T05:20:07;15.80;99.90
9845;DHT22;4961;50.782;6.080;2022-09-12T05:22:38;15.70;99.90
9845;DHT22;4961;50.782;6.080;2022-09-12T05:25:07;15.70;99.90
9845;DHT22;4961;50.782;6.080;2022-09-12T05:27:36;15.70;99.90
9845;DHT22;4961;50.782;6.080;2022-09-12T05:30:05;15.70;99.90
9845;DHT22;4961;50.782;6.080;2022-09-12T05:32:34;15.70;99.90
9845;DHT22;4961;50.782;6.080;2022-09-12T05:35:02;15.70;99.90
9845;DHT22;4961;50.782;6.080;2022-09-12T05:37:31;15.70;99.90
9845;DHT22;4961;50.782;6.080;2022-09-12T05:40:00;15.70;99.90
9845;DHT22;4961;50.782;6.080;2022-09-12T05:42:33;15.70;99.90
9845;DHT22;4961;50.782;6.080;2022-09-12T05:45:03;15.80;99.90
9845;DHT22;4961;50.782;6.080;2022-09-12T05:47:31;15.80;99.90
9845;DHT22;4961;50.782;6.080;2022-09-12T05:49:59;15.80;99.90
9845;DHT22;4961;50.782;6.080;2022-09-12T05:52:28;15.80;99.90
9845;DHT22;4961;50.782;6.080;2022-09-12T05:54:58;15.90;99.90
9845;DHT22;4961;50.782;6.080;2022-09-12T05:57:26;15.90;99.90
9845;DHT22;4961;50.782;6.080;2022-09-12T05:59:55;15.90;99.90
9845;DHT22;4961;50.782;6.080;2022-09-12T06:02:23;15.90;99.90
9845;DHT22;4961;50.782;6.080;2022-09-12T06:04:51;16.00;99.90
9845;DHT22;4961;50.782;6.080;2022-09-12T06:07:19;16.00;99.90
9845;DHT22;4961;50.782;6.080;2022-09-12T06:09:49;16.00;99.90
9845;DHT22;4961;50.782;6.080;2022-09-12T06:12:18;16.00;99.90
9845;DHT22;4961;50.782;6.080;2022-09-12T06:14:46;16.10;99.90
9845;DHT22;4961;50.782;6.080;2022-09-12T06:17:15;16.10;99.90
9845;DHT22;4961;50.782;6.080;2022-09-12T06:19:47;16.20;99.90
9845;DHT22;4961;50.782;6.080;2022-09-12T06:22:21;16.20;99.90
9845;DHT22;4961;50.782;6.080;2022-09-12T06:24:58;16.20;99.90
9845;DHT22;4961;50.782;6.080;2022-09-12T06:27:27;16.30;99.90
9845;DHT22;4961;50.782;6.080;2022-09-12T06:29:55;16.30;99.90
9845;DHT22;4961;50.782;6.080;2022-09-12T06:32:23;16.30;99.90
9845;DHT22;4961;50.782;6.080;2022-09-12T06:34:52;16.30;99.90
9845;DHT22;4961;50.782;6.080;2022-09-12T06:37:20;16.40;99.90
9845;DHT22;4961;50.782;6.080;2022-09-12T06:39:48;16.40;99.90
9845;DHT22;4961;50.782;6.080;2022-09-12T06:42:16;16.40;99.90
9845;DHT22;4961;50.782;6.080;2022-09-12T06:44:47;16.50;99.90
9845;DHT22;4961;50.782;6.080;2022-09-12T06:47:16;16.50;99.90
9845;DHT22;4961;50.782;6.080;2022-09-12T06:49:44;16.50;99.90
9845;DHT22;4961;50.782;6.080;2022-09-12T06:52:12;16.50;99.90
9845;DHT22;4961;50.782;6.080;2022-09-12T06:54:43;16.50;99.90
9845;DHT22;4961;50.782;6.080;2022-09-12T06:57:17;16.60;99.90
9845;DHT22;4961;50.782;6.080;2022-09-12T06:59:50;16.70;99.90
9845;DHT22;4961;50.782;6.080;2022-09-12T07:02:18;16.70;99.90
9845;DHT22;4961;50.782;6.080;2022-09-12T07:04:47;16.80;99.90
9845;DHT22;4961;50.782;6.080;2022-09-12T07:07:17;16.90;99.90
9845;DHT22;4961;50.782;6.080;2022-09-12T07:09:46;17.00;99.90
9845;DHT22;4961;50.782;6.080;2022-09-12T07:12:15;17.20;99.90
9845;DHT22;4961;50.782;6.080;2022-09-12T07:14:43;17.30;99.90
9845;DHT22;4961;50.782;6.080;2022-09-12T07:17:13;17.40;99.90
9845;DHT22;4961;50.782;6.080;2022-09-12T07:19:41;17.50;99.90
9845;DHT22;4961;50.782;6.080;2022-09-12T07:22:09;17.60;99.90
9845;DHT22;4961;50.782;6.080;2022-09-12T07:24:38;17.70;99.90
9845;DHT22;4961;50.782;6.080;2022-09-12T07:27:07;17.80;99.90
9845;DHT22;4961;50.782;6.080;2022-09-12T07:29:35;17.90;99.90
9845;DHT22;4961;50.782;6.080;2022-09-12T07:32:05;18.00;99.90
9845;DHT22;4961;50.782;6.080;2022-09-12T07:34:35;18.10;99.90
9845;DHT22;4961;50.782;6.080;2022-09-12T07:37:03;18.20;99.90
9845;DHT22;4961;50.782;6.080;2022-09-12T07:39:31;18.20;99.90
9845;DHT22;4961;50.782;6.080;2022-09-12T07:42:02;18.30;99.90
9845;DHT22;4961;50.782;6.080;2022-09-12T07:44:37;18.40;99.90
9845;DHT22;4961;50.782;6.080;2022-09-12T07:47:11;18.50;99.90
9845;DHT22;4961;50.782;6.080;2022-09-12T07:49:43;18.60;99.90
9845;DHT22;4961;50.782;6.080;2022-09-12T07:52:11;18.60;99.90
9845;DHT22;4961;50.782;6.080;2022-09-12T07:54:39;18.70;99.90
9845;DHT22;4961;50.782;6.080;2022-09-12T07:57:07;18.70;99.90
9845;DHT22;4961;50.782;6.080;2022-09-12T07:59:36;18.70;99.90
9845;DHT22;4961;50.782;6.080;2022-09-12T08:02:19;18.70;99.90
9845;DHT22;4961;50.782;6.080;2022-09-12T08:04:49;18.80;99.90
9845;DHT22;4961;50.782;6.080;2022-09-12T08:07:21;18.80;99.90
9845;DHT22;4961;50.782;6.080;2022-09-12T08:09:51;18.80;99.90
9845;DHT22;4961;50.782;6.080;2022-09-12T08:12:20;18.90;99.90
9845;DHT22;4961;50.782;6.080;2022-09-12T08:14:48;18.90;99.90
9845;DHT22;4961;50.782;6.080;2022-09-12T08:17:16;19.00;99.90
9845;DHT22;4961;50.782;6.080;2022-09-12T08:19:44;19.10;99.90
9845;DHT22;4961;50.782;6.080;2022-09-12T08:22:15;19.10;99.90
9845;DHT22;4961;50.782;6.080;2022-09-12T08:24:46;19.20;99.90
9845;DHT22;4961;50.782;6.080;2022-09-12T08:27:14;19.20;99.90
9845;DHT22;4961;50.782;6.080;2022-09-12T08:29:42;19.20;99.90
9845;DHT22;4961;50.782;6.080;2022-09-12T08:32:11;19.30;99.90
9845;DHT22;4961;50.782;6.080;2022-09-12T08:34:39;19.40;99.90
9845;DHT22;4961;50.782;6.080;2022-09-12T08:37:07;19.40;99.90
9845;DHT22;4961;50.782;6.080;2022-09-12T08:39:37;19.40;99.90
9845;DHT22;4961;50.782;6.080;2022-09-12T08:42:08;19.50;99.90
9845;DHT22;4961;50.782;6.080;2022-09-12T08:44:53;19.60;99.90
9845;DHT22;4961;50.782;6.080;2022-09-12T08:47:27;19.70;99.90
9845;DHT22;4961;50.782;6.080;2022-09-12T08:50:05;19.90;99.90
9845;DHT22;4961;50.782;6.080;2022-09-12T08:52:43;20.10;99.90
9845;DHT22;4961;50.782;6.080;2022-09-12T08:55:28;20.30;99.90
9845;DHT22;4961;50.782;6.080;2022-09-12T08:57:58;20.50;99.90
9845;DHT22;4961;50.782;6.080;2022-09-12T09:00:37;20.80;99.90
9845;DHT22;4961;50.782;6.080;2022-09-12T09:03:33;21.10;99.90
9845;DHT22;4961;50.782;6.080;2022-09-12T09:06:16;21.50;99.90
9845;DHT22;4961;50.782;6.080;2022-09-12T09:08:55;21.90;99.90
9845;DHT22;4961;50.782;6.080;2022-09-12T09:11:44;22.40;99.90
9845;DHT22;4961;50.782;6.080;2022-09-12T09:14:27;22.90;99.90
9845;DHT22;4961;50.782;6.080;2022-09-12T09:17:23;23.40;99.90
9845;DHT22;4961;50.782;6.080;2022-09-12T09:19:58;23.80;99.90
9845;DHT22;4961;50.782;6.080;2022-09-12T09:22:35;24.10;99.90
9845;DHT22;4961;50.782;6.080;2022-09-12T09:25:10;24.60;99.90
9845;DHT22;4961;50.782;6.080;2022-09-12T09:27:45;24.90;99.90
9845;DHT22;4961;50.782;6.080;2022-09-12T09:30:15;25.30;99.90
9845;DHT22;4961;50.782;6.080;2022-09-12T09:32:47;25.50;99.90
9845;DHT22;4961;50.782;6.080;2022-09-12T09:35:19;25.90;99.90
9845;DHT22;4961;50.782;6.080;2022-09-12T09:38:00;26.10;99.90
9845;DHT22;4961;50.782;6.080;2022-09-12T09:40:39;26.30;99.90
9845;DHT22;4961;50.782;6.080;2022-09-12T09:43:20;26.40;99.90
9845;DHT22;4961;50.782;6.080;2022-09-12T09:45:50;26.40;99.90
9845;DHT22;4961;50.782;6.080;2022-09-12T09:48:21;26.50;99.90
9845;DHT22;4961;50.782;6.080;2022-09-12T09:50:51;26.60;99.90
9845;DHT22;4961;50.782;6.080;2022-09-12T09:53:26;26.60;99.90
9845;DHT22;4961;50.782;6.080;2022-09-12T09:56:01;26.60;99.90
9845;DHT22;4961;50.782;6.080;2022-09-12T09:58:34;26.60;99.90
9845;DHT22;4961;50.782;6.080;2022-09-12T10:01:03;26.70;99.90
9845;DHT22;4961;50.782;6.080;2022-09-12T10:03:33;26.90;99.90
9845;DHT22;4961;50.782;6.080;2022-09-12T10:06:22;27.20;99.90
9845;DHT22;4961;50.782;6.080;2022-09-12T10:09:15;27.30;99.90
9845;DHT22;4961;50.782;6.080;2022-09-12T10:11:45;27.50;99.90
9845;DHT22;4961;50.782;6.080;2022-09-12T10:14:38;27.40;99.90
9845;DHT22;4961;50.782;6.080;2022-09-12T10:17:25;27.40;99.90
9845;DHT22;4961;50.782;6.080;2022-09-12T10:20:00;27.40;99.90
9845;DHT22;4961;50.782;6.080;2022-09-12T10:22:49;27.70;99.90
9845;DHT22;4961;50.782;6.080;2022-09-12T10:25:18;27.80;99.90
9845;DHT22;4961;50.782;6.080;2022-09-12T10:27:53;27.90;99.90
9845;DHT22;4961;50.782;6.080;2022-09-12T10:30:24;28.00;99.90
9845;DHT22;4961;50.782;6.080;2022-09-12T10:33:05;28.00;99.90
9845;DHT22;4961;50.782;6.080;2022-09-12T10:35:44;27.90;99.90
9845;DHT22;4961;50.782;6.080;2022-09-12T10:38:19;27.90;99.90
9845;DHT22;4961;50.782;6.080;2022-09-12T10:40:55;28.00;99.90
9845;DHT22;4961;50.782;6.080;2022-09-12T10:43:29;28.30;99.90
9845;DHT22;4961;50.782;6.080;2022-09-12T10:46:21;28.50;99.90
9845;DHT22;4961;50.782;6.080;2022-09-12T10:51:39;28.90;99.90
9845;DHT22;4961;50.782;6.080;2022-09-12T10:54:09;28.80;99.90
9845;DHT22;4961;50.782;6.080;2022-09-12T10:56:42;28.60;99.90
9845;DHT22;4961;50.782;6.080;2022-09-12T10:59:22;28.50;99.90
9845;DHT22;4961;50.782;6.080;2022-09-12T11:01:59;28.50;99.90
9845;DHT22;4961;50.782;6.080;2022-09-12T11:04:35;28.60;99.90
9845;DHT22;4961;50.782;6.080;2022-09-12T11:07:31;28.70;99.90
9845;DHT22;4961;50.782;6.080;2022-09-12T11:10:08;28.80;99.90
9845;DHT22;4961;50.782;6.080;2022-09-12T11:12:45;28.80;99.90
9845;DHT22;4961;50.782;6.080;2022-09-12T11:15:33;29.10;99.90
9845;DHT22;4961;50.782;6.080;2022-09-12T11:18:14;29.20;99.90
9845;DHT22;4961;50.782;6.080;2022-09-12T11:20:57;29.20;99.90
9845;DHT22;4961;50.782;6.080;2022-09-12T11:24:09;29.20;99.90
9845;DHT22;4961;50.782;6.080;2022-09-12T11:26:58;29.00;99.90
9845;DHT22;4961;50.782;6.080;2022-09-12T11:29:39;28.90;99.90
9845;DHT22;4961;50.782;6.080;2022-09-12T11:35:05;28.90;99.90
9845;DHT22;4961;50.782;6.080;2022-09-12T11:37:53;29.00;99.90
9845;DHT22;4961;50.782;6.080;2022-09-12T11:40:27;29.00;99.90
9845;DHT22;4961;50.782;6.080;2022-09-12T11:43:02;29.00;99.60
9845;DHT22;4961;50.782;6.080;2022-09-12T11:45:38;29.10;99.20
9845;DHT22;4961;50.782;6.080;2022-09-12T11:48:10;29.10;99.90
9845;DHT22;4961;50.782;6.080;2022-09-12T11:50:42;29.20;99.90
9845;DHT22;4961;50.782;6.080;2022-09-12T11:53:16;29.10;99.90
9845;DHT22;4961;50.782;6.080;2022-09-12T11:55:52;29.00;98.90
9845;DHT22;4961;50.782;6.080;2022-09-12T11:58:26;29.10;99.90
9845;DHT22;4961;50.782;6.080;2022-09-12T12:00:57;29.10;99.90
9845;DHT22;4961;50.782;6.080;2022-09-12T12:03:33;29.00;96.40
9845;DHT22;4961;50.782;6.080;2022-09-12T12:06:09;28.90;97.50
9845;DHT22;4961;50.782;6.080;2022-09-12T12:08:40;28.90;99.80
9845;DHT22;4961;50.782;6.080;2022-09-12T12:11:23;29.00;99.90
9845;DHT22;4961;50.782;6.080;2022-09-12T12:13:56;28.90;99.80
9845;DHT22;4961;50.782;6.080;2022-09-12T12:16:26;28.90;95.70
9845;DHT22;4961;50.782;6.080;2022-09-12T12:18:58;28.80;97.30
9845;DHT22;4961;50.782;6.080;2022-09-12T12:21:37;28.70;96.50
9845;DHT22;4961;50.782;6.080;2022-09-12T12:24:13;28.50;95.20
9845;DHT22;4961;50.782;6.080;2022-09-12T12:26:58;28.30;98.10
9845;DHT22;4961;50.782;6.080;2022-09-12T12:29:41;28.10;95.90
9845;DHT22;4961;50.782;6.080;2022-09-12T12:32:21;28.00;94.80
9845;DHT22;4961;50.782;6.080;2022-09-12T12:35:10;27.80;94.50
9845;DHT22;4961;50.782;6.080;2022-09-12T12:37:54;27.50;97.30
9845;DHT22;4961;50.782;6.080;2022-09-12T12:40:26;27.40;98.60
9845;DHT22;4961;50.782;6.080;2022-09-12T12:43:04;27.40;98.40
9845;DHT22;4961;50.782;6.080;2022-09-12T12:45:48;27.40;99.10
9845;DHT22;4961;50.782;6.080;2022-09-12T12:48:29;27.40;98.50
9845;DHT22;4961;50.782;6.080;2022-09-12T12:51:28;27.50;98.30
9845;DHT22;4961;50.782;6.080;2022-09-12T12:54:00;27.50;99.90
9845;DHT22;4961;50.782;6.080;2022-09-12T12:56:34;27.60;99.90
9845;DHT22;4961;50.782;6.080;2022-09-12T12:59:10;27.50;99.70
9845;DHT22;4961;50.782;6.080;2022-09-12T13:01:44;27.40;98.40
9845;DHT22;4961;50.782;6.080;2022-09-12T13:04:21;27.30;98.60
9845;DHT22;4961;50.782;6.080;2022-09-12T13:06:57;27.40;99.90
9845;DHT22;4961;50.782;6.080;2022-09-12T13:09:37;27.50;99.90
9845;DHT22;4961;50.782;6.080;2022-09-12T13:12:16;27.50;99.90
9845;DHT22;4961;50.782;6.080;2022-09-12T13:14:51;27.50;99.80
9845;DHT22;4961;50.782;6.080;2022-09-12T13:17:32;27.40;97.30
9845;DHT22;4961;50.782;6.080;2022-09-12T13:20:13;27.40;99.90
9845;DHT22;4961;50.782;6.080;2022-09-12T13:22:54;27.40;99.90
9845;DHT22;4961;50.782;6.080;2022-09-12T13:25:27;27.40;97.50
9845;DHT22;4961;50.782;6.080;2022-09-12T13:27:57;27.30;98.00
9845;DHT22;4961;50.782;6.080;2022-09-12T13:30:26;27.20;96.20
9845;DHT22;4961;50.782;6.080;2022-09-12T13:32:57;27.20;96.00
9845;DHT22;4961;50.782;6.080;2022-09-12T13:35:38;27.20;98.90
9845;DHT22;4961;50.782;6.080;2022-09-12T13:38:15;27.20;99.10
9845;DHT22;4961;50.782;6.080;2022-09-12T13:41:01;27.20;96.40
9845;DHT22;4961;50.782;6.080;2022-09-12T13:43:36;27.20;96.10
9845;DHT22;4961;50.782;6.080;2022-09-12T13:46:07;27.20;98.10
9845;DHT22;4961;50.782;6.080;2022-09-12T13:48:38;27.20;96.70
9845;DHT22;4961;50.782;6.080;2022-09-12T13:51:20;27.30;97.30
9845;DHT22;4961;50.782;6.080;2022-09-12T13:53:50;27.30;99.70
9845;DHT22;4961;50.782;6.080;2022-09-12T13:56:21;27.30;98.90
9845;DHT22;4961;50.782;6.080;2022-09-12T13:58:54;27.20;98.40
9845;DHT22;4961;50.782;6.080;2022-09-12T14:01:34;27.20;99.00
9845;DHT22;4961;50.782;6.080;2022-09-12T14:04:14;27.20;99.40
9845;DHT22;4961;50.782;6.080;2022-09-12T14:07:06;27.10;99.70
9845;DHT22;4961;50.782;6.080;2022-09-12T14:09:39;27.00;98.30
9845;DHT22;4961;50.782;6.080;2022-09-12T14:12:21;26.90;98.20
9845;DHT22;4961;50.782;6.080;2022-09-12T14:14:52;26.90;99.80
9845;DHT22;4961;50.782;6.080;2022-09-12T14:17:26;26.90;99.90
9845;DHT22;4961;50.782;6.080;2022-09-12T14:19:58;26.90;99.70
9845;DHT22;4961;50.782;6.080;2022-09-12T14:22:29;26.80;99.80
9845;DHT22;4961;50.782;6.080;2022-09-12T14:24:58;26.90;99.20
9845;DHT22;4961;50.782;6.080;2022-09-12T14:27:44;26.80;98.30
9845;DHT22;4961;50.782;6.080;2022-09-12T14:30:25;26.80;98.50
9845;DHT22;4961;50.782;6.080;2022-09-12T14:33:04;26.70;99.10
9845;DHT22;4961;50.782;6.080;2022-09-12T14:35:33;26.70;99.20
9845;DHT22;4961;50.782;6.080;2022-09-12T14:38:06;26.80;98.40
9845;DHT22;4961;50.782;6.080;2022-09-12T14:40:40;26.80;99.00
9845;DHT22;4961;50.782;6.080;2022-09-12T14:43:20;26.80;99.30
9845;DHT22;4961;50.782;6.080;2022-09-12T14:45:56;26.90;99.90
9845;DHT22;4961;50.782;6.080;2022-09-12T14:48:36;26.90;99.30
9845;DHT22;4961;50.782;6.080;2022-09-12T14:51:18;27.00;99.10
9845;DHT22;4961;50.782;6.080;2022-09-12T14:53:48;27.00;98.70
9845;DHT22;4961;50.782;6.080;2022-09-12T14:56:16;27.00;98.40
9845;DHT22;4961;50.782;6.080;2022-09-12T14:58:49;26.90;96.40
9845;DHT22;4961;50.782;6.080;2022-09-12T15:01:23;26.90;97.10
9845;DHT22;4961;50.782;6.080;2022-09-12T15:03:54;26.80;97.30
9845;DHT22;4961;50.782;6.080;2022-09-12T15:06:27;26.80;98.60
9845;DHT22;4961;50.782;6.080;2022-09-12T15:08:57;26.80;97.60
9845;DHT22;4961;50.782;6.080;2022-09-12T15:11:26;26.70;97.20
9845;DHT22;4961;50.782;6.080;2022-09-12T15:13:56;26.70;97.40
9845;DHT22;4961;50.782;6.080;2022-09-12T15:16:24;26.60;98.00
9845;DHT22;4961;50.782;6.080;2022-09-12T15:18:52;26.50;97.40
9845;DHT22;4961;50.782;6.080;2022-09-12T15:21:21;26.50;98.00
9845;DHT22;4961;50.782;6.080;2022-09-12T15:23:51;26.50;96.80
9845;DHT22;4961;50.782;6.080;2022-09-12T15:26:21;26.50;98.50
9845;DHT22;4961;50.782;6.080;2022-09-12T15:28:50;26.40;97.60
9845;DHT22;4961;50.782;6.080;2022-09-12T15:31:23;26.30;98.00
9845;DHT22;4961;50.782;6.080;2022-09-12T15:33:52;26.30;97.30
9845;DHT22;4961;50.782;6.080;2022-09-12T15:36:23;26.30;98.20
9845;DHT22;4961;50.782;6.080;2022-09-12T15:38:53;26.20;99.90
9845;DHT22;4961;50.782;6.080;2022-09-12T15:41:26;26.30;99.10
9845;DHT22;4961;50.782;6.080;2022-09-12T15:43:55;26.30;97.40
9845;DHT22;4961;50.782;6.080;2022-09-12T15:46:25;26.20;96.70
9845;DHT22;4961;50.782;6.080;2022-09-12T15:48:54;26.10;97.60
9845;DHT22;4961;50.782;6.080;2022-09-12T15:51:23;26.10;97.70
9845;DHT22;4961;50.782;6.080;2022-09-12T15:53:51;26.00;97.60
9845;DHT22;4961;50.782;6.080;2022-09-12T15:56:20;26.00;98.30
9845;DHT22;4961;50.782;6.080;2022-09-12T15:58:49;25.90;98.10
9845;DHT22;4961;50.782;6.080;2022-09-12T16:01:28;25.90;99.10
9845;DHT22;4961;50.782;6.080;2022-09-12T16:03:56;25.90;97.40
9845;DHT22;4961;50.782;6.080;2022-09-12T16:06:25;25.90;98.50
9845;DHT22;4961;50.782;6.080;2022-09-12T16:09:02;25.90;99.00
9845;DHT22;4961;50.782;6.080;2022-09-12T16:11:30;25.90;99.30
9845;DHT22;4961;50.782;6.080;2022-09-12T16:13:59;25.90;98.50
9845;DHT22;4961;50.782;6.080;2022-09-12T16:16:28;25.90;99.40
9845;DHT22;4961;50.782;6.080;2022-09-12T16:18:57;25.90;99.20
9845;DHT22;4961;50.782;6.080;2022-09-12T16:21:25;25.90;98.20
9845;DHT22;4961;50.782;6.080;2022-09-12T16:23:53;25.80;99.90
9845;DHT22;4961;50.782;6.080;2022-09-12T16:26:22;25.70;98.90
9845;DHT22;4961;50.782;6.080;2022-09-12T16:28:53;25.70;97.80
9845;DHT22;4961;50.782;6.080;2022-09-12T16:31:23;25.60;98.10
9845;DHT22;4961;50.782;6.080;2022-09-12T16:33:54;25.50;98.60
9845;DHT22;4961;50.782;6.080;2022-09-12T16:36:22;25.50;98.80
9845;DHT22;4961;50.782;6.080;2022-09-12T16:38:52;25.50;99.00
9845;DHT22;4961;50.782;6.080;2022-09-12T16:41:22;25.40;99.90
9845;DHT22;4961;50.782;6.080;2022-09-12T16:43:53;25.30;99.90
9845;DHT22;4961;50.782;6.080;2022-09-12T16:46:22;25.30;99.80
9845;DHT22;4961;50.782;6.080;2022-09-12T16:48:56;25.30;99.90
9845;DHT22;4961;50.782;6.080;2022-09-12T16:51:31;25.20;99.90